Warrenton, VA

3:55 PM EST on March 01, 2015 (GMT -0500)
Old Waterloo Road | Change Station
CLOSE
Current Station
Personal Weather Station
Location: Warrenton, VA
Elevation: 512 ft
Nearby Weather Stations
Active Advisory: Winter Weather Advisory Active Notice: Public Information Statement

Elev 512 ft 38.70 °N, 77.90 °W | Updated 11 seconds ago

Overcast
Overcast
28.7 °F
Feels Like 29 °F
N
2.0
Wind Variable Wind from South
Gusts 5.0 mph

Today
High -- | Low -- °F
--% Chance of Precip.
Yesterday
High -- | Low -- °F
Precip. -- in
6:44 AM 6:04 PM
Waxing Gibbous, 87% visible
Pressure 30.39 in
Visibility 10.0 miles
Clouds Scattered Clouds 600 ft
Mostly Cloudy 2300 ft
Overcast 5500 ft
Windchill 29 °F
Dew Point 24 °F
Humidity 84%
Rainfall 0.00 in
Snow Depth Not available.
UV 1 out of 12
Pollen .60 out of 12
Air Quality Not available.
Flu Activity Not available.
METAR KHWY 012035Z AUTO 21005KT 10SM -RA SCT006 BKN023 OVC055 00/00 A3039 RMK AO2 T10041004

More Conditions Fewer Conditions

Pressure 30.39 in
Visibility 10.0 miles
Clouds Scattered Clouds 600 ft
Mostly Cloudy 2300 ft
Overcast 5500 ft
Windchill 29 °F
Dew Point 24 °F
Humidity 84%
Rainfall 0.00 in
Snow Depth Not available.
UV 1 out of 12
Pollen .60 out of 12
Air Quality Not available.
Flu Activity Not available.
METAR KHWY 012035Z AUTO 21005KT 10SM -RA SCT006 BKN023 OVC055 00/00 A3039 RMK AO2 T10041004

More Conditions Fewer Conditions

10-Day Weather Forecast

Almanac

Astronomy

Mar. 01, 2015 Rise Set
Actual Time
Civil Twilight
Nautical Twilight
Astronomical Twilight
Moon
Length of Visible Light
Length of Day
Tomorrow will be .
, % of the Moon is Illuminated

Today's Extremes

State Highs State Lows

Community

WunderPhotos

Upload Photos

1,801,550 photos uploaded!

WunderBlogs® & News

Nearby

Air Quality

  Air Quality AQ Index Pollutant
Not available.

Snow Depth

Station Depth Elevation

Earthquake Activity

City Distance Mag. Time & Date
Minimum magnitude displayed is 2.5.

Coastal Water Temperatures

Place Temperature

Nearby Weather Stations

Winter Weather Advisory
Statement as of 2:36 PM EST on March 01, 2015

... Winter Weather Advisory remains in effect until 7 PM EST this
evening...

* locations... portions of northern and central Virginia... the
Potomac Highlands and the central Shenandoah Valley.

* Hazard types... freezing rain.

* Accumulations... ice accumulation up to one-tenth of an inch.

* Timing... freezing rain will end by early this evening.

* Impacts... roads will be slippery in spots through this evening.

* Winds... south around 5 to 10 mph with gusts around 15 to 20
mph along the ridges above 2000 feet.

* Temperatures... rising into the lower and middle 30s this
afternoon. Temperatures will remain in the lower and middle
30s tonight.

Precautionary/preparedness actions...

A Winter Weather Advisory means that periods of freezing rain
will cause travel difficulties. Be prepared for slippery roads and
limited visibilities... and use caution while driving.